Time;durP1;ratioP1;P1;durP2;ratioP2;P2;SDS_P1;SDS_P2;PMS_P1;PMS_P2;Temp;Humidity;BMP_temperature;BMP_pressure;BME280_temperature;BME280_humidity;BME280_pressure;Samples;Min_cycle;Max_cycle;Signal;HPM_P1;HPM_P2
2023/07/06 00:00:12;;;;;;;10.40;3.40;;;;;;;14.67;66.92;100875.63;4920743;29;20433;-69
2023/07/06 00:02:42;;;;;;;5.10;3.43;;;;;;;14.62;67.50;100871.94;4916878;29;20404;-68
2023/07/06 00:05:12;;;;;;;10.83;4.70;;;;;;;14.64;68.11;100870.63;4915371;29;20438;-68
2023/07/06 00:07:41;;;;;;;9.07;6.20;;;;;;;14.78;67.31;100869.41;4919533;29;20477;-69
2023/07/06 00:10:10;;;;;;;13.13;4.50;;;;;;;14.79;67.47;100881.97;4918540;29;20420;-70
2023/07/06 00:12:41;;;;;;;5.80;3.40;;;;;;;14.88;67.21;100879.75;4920169;29;20452;-68
2023/07/06 00:15:11;;;;;;;4.80;3.10;;;;;;;14.99;66.80;100884.41;4916618;29;20466;-69
2023/07/06 00:17:40;;;;;;;6.67;3.63;;;;;;;14.90;67.07;100888.53;4917127;29;20465;-69
2023/07/06 00:20:12;;;;;;;9.17;3.87;;;;;;;14.95;67.07;100880.50;4919029;29;20430;-67
2023/07/06 00:22:42;;;;;;;6.27;3.90;;;;;;;14.87;67.77;100885.41;4919055;29;20480;-69
2023/07/06 00:25:12;;;;;;;5.27;3.37;;;;;;;14.98;67.54;100890.94;4918636;29;20412;-67
2023/07/06 00:27:43;;;;;;;9.10;3.80;;;;;;;15.02;67.70;100886.66;4916354;29;20960;-70
2023/07/06 00:30:18;;;;;;;5.90;4.30;;;;;;;14.94;68.02;100881.56;4915549;29;20815;-68
2023/07/06 00:32:48;;;;;;;5.53;3.60;;;;;;;14.96;68.04;100892.22;4920372;29;20441;-69
2023/07/06 00:35:17;;;;;;;10.20;4.20;;;;;;;14.88;68.49;100889.81;4915445;29;21150;-66
2023/07/06 00:37:49;;;;;;;6.40;3.87;;;;;;;14.82;69.02;100894.28;4916542;29;20831;-69
2023/07/06 00:40:18;;;;;;;4.27;3.77;;;;;;;14.88;68.86;100898.81;5080600;23;20542;-67
2023/07/06 00:42:49;;;;;;;7.43;4.50;;;;;;;15.04;68.41;100895.47;4919618;29;20420;-65
2023/07/06 00:45:18;;;;;;;10.30;4.67;;;;;;;15.07;68.25;100902.31;4923354;29;20401;-64
2023/07/06 00:47:55;;;;;;;5.10;4.00;;;;;;;15.05;68.61;100899.84;4923624;28;20473;-63
2023/07/06 00:50:28;;;;;;;9.00;4.40;;;;;;;15.22;67.86;100900.84;4917018;29;20496;-67
2023/07/06 00:53:03;;;;;;;6.63;4.13;;;;;;;15.09;68.60;100902.94;4924261;29;21030;-64
2023/07/06 00:55:40;;;;;;;5.27;3.50;;;;;;;15.01;68.97;100909.53;4918296;29;20469;-64
2023/07/06 00:58:18;;;;;;;7.67;4.00;;;;;;;14.99;69.80;100906.22;4915874;29;20461;-66
2023/07/06 01:00:47;;;;;;;4.10;3.43;;;;;;;14.99;69.45;100914.38;4925054;29;20473;-65
2023/07/06 01:03:19;;;;;;;5.97;3.47;;;;;;;14.97;69.83;100905.59;4921819;29;20447;-66
2023/07/06 01:05:50;;;;;;;5.37;4.07;;;;;;;15.01;69.23;100908.69;4915180;29;20429;-66
2023/07/06 01:08:23;;;;;;;6.87;4.80;;;;;;;14.87;69.96;100915.38;4914985;29;20453;-65
2023/07/06 01:10:53;;;;;;;5.57;4.40;;;;;;;14.88;70.37;100914.31;4915039;29;20596;-65
2023/07/06 01:13:25;;;;;;;4.80;4.30;;;;;;;14.87;69.95;100910.75;4918531;29;20467;-66
2023/07/06 01:16:02;;;;;;;4.27;3.87;;;;;;;14.83;70.79;100919.63;4918115;29;20657;-66
2023/07/06 01:18:42;;;;;;;5.63;3.93;;;;;;;14.79;70.80;100919.28;4914724;29;20578;-65
2023/07/06 01:21:18;;;;;;;6.47;4.57;;;;;;;14.85;70.55;100917.53;4915015;29;21166;-65
2023/07/06 01:27:22;;;;;;;7.27;4.17;;;;;;;14.69;71.91;100918.97;4921389;29;20489;-63
2023/07/06 01:30:34;;;;;;;6.87;4.83;;;;;;;14.66;72.86;100919.44;4918498;29;20807;-66
2023/07/06 01:33:10;;;;;;;8.10;4.43;;;;;;;14.58;72.57;100922.44;4925040;29;20407;-62
2023/07/06 01:35:45;;;;;;;11.33;6.03;;;;;;;14.66;72.79;100922.16;4921885;29;20894;-65
2023/07/06 01:38:15;;;;;;;6.27;4.47;;;;;;;14.53;72.94;100916.84;4920581;29;20476;-64
2023/07/06 01:40:43;;;;;;;6.37;4.17;;;;;;;14.38;73.98;100916.44;4926484;29;20569;-64
2023/07/06 01:43:13;;;;;;;5.00;4.50;;;;;;;14.26;74.32;100914.41;4925731;29;20420;-63
2023/07/06 01:45:46;;;;;;;6.60;4.40;;;;;;;14.21;75.15;100916.97;4922773;29;20913;-64
2023/07/06 01:48:17;;;;;;;5.67;4.43;;;;;;;14.19;75.51;100918.25;4922122;29;20993;-64
2023/07/06 01:50:55;;;;;;;5.97;4.60;;;;;;;14.28;75.04;100914.19;4917250;29;20453;-64
2023/07/06 01:53:33;;;;;;;6.20;4.13;;;;;;;14.17;75.84;100915.78;4919161;29;20444;-63
2023/07/06 01:56:08;;;;;;;5.60;3.90;;;;;;;14.16;76.09;100914.09;4917504;29;20521;-64
2023/07/06 01:58:44;;;;;;;6.00;4.20;;;;;;;14.16;76.33;100924.16;4917109;29;20487;-62
2023/07/06 02:01:18;;;;;;;9.77;4.73;;;;;;;14.11;76.68;100922.09;4928861;29;20451;-65
2023/07/06 02:03:53;;;;;;;5.50;3.80;;;;;;;14.17;76.62;100921.22;4922268;29;20782;-66
2023/07/06 02:06:22;;;;;;;8.70;4.00;;;;;;;14.16;76.84;100929.59;4918449;29;20407;-65
2023/07/06 02:08:51;;;;;;;6.00;4.37;;;;;;;14.30;76.44;100929.22;4918342;29;20433;-65
2023/07/06 02:11:24;;;;;;;5.60;3.97;;;;;;;14.47;75.95;100931.41;4922439;29;20433;-65
2023/07/06 02:13:54;;;;;;;6.70;4.23;;;;;;;14.59;75.03;100935.84;4920746;29;20536;-65
2023/07/06 02:16:23;;;;;;;5.43;4.27;;;;;;;14.75;74.67;100935.25;4921550;29;20420;-64
2023/07/06 02:18:55;;;;;;;6.63;4.33;;;;;;;14.94;73.21;100936.06;4919200;29;20439;-65
2023/07/06 02:21:24;;;;;;;5.83;5.07;;;;;;;15.10;72.67;100949.03;4914745;29;20938;-64
2023/07/06 02:23:53;;;;;;;5.07;3.60;;;;;;;15.08;72.72;100951.16;4924877;29;20472;-64
2023/07/06 02:26:22;;;;;;;8.27;4.83;;;;;;;15.16;72.26;100952.72;4921339;29;20650;-65
2023/07/06 02:28:52;;;;;;;5.20;4.50;;;;;;;15.23;71.92;100950.75;4919419;29;20436;-64
2023/07/06 02:31:21;;;;;;;7.13;4.10;;;;;;;15.13;72.33;100954.03;4918260;29;20569;-65
2023/07/06 02:33:52;;;;;;;4.77;3.50;;;;;;;15.21;71.76;100956.41;4920798;29;20405;-65
2023/07/06 02:36:23;;;;;;;6.40;4.87;;;;;;;15.17;71.84;100949.78;4919080;29;20560;-63
2023/07/06 02:38:52;;;;;;;7.30;4.97;;;;;;;15.19;72.24;100942.22;4925661;29;20461;-66
2023/07/06 02:41:21;;;;;;;11.90;4.87;;;;;;;15.27;71.69;100945.66;4917728;29;20554;-66
2023/07/06 02:47:58;;;;;;;8.87;4.57;;;;;;;15.35;71.49;100950.78;4916762;29;20541;-66
2023/07/06 02:50:28;;;;;;;7.20;4.37;;;;;;;15.35;71.67;100950.78;4925329;29;20922;-65
2023/07/06 02:52:59;;;;;;;6.97;4.87;;;;;;;15.36;72.00;100952.44;4916443;29;20475;-64
2023/07/06 02:55:28;;;;;;;6.43;4.97;;;;;;;15.25;72.62;100947.81;4922004;29;20605;-65
2023/07/06 02:57:57;;;;;;;4.70;4.30;;;;;;;15.20;72.47;100954.75;4917742;29;20987;-64
2023/07/06 03:00:29;;;;;;;4.73;3.80;;;;;;;15.14;72.56;100955.69;4915815;29;20541;-62
2023/07/06 03:02:58;;;;;;;6.40;4.90;;;;;;;15.14;72.80;100958.41;4918766;29;20820;-59
2023/07/06 03:05:27;;;;;;;7.00;4.93;;;;;;;15.09;72.59;100946.53;4919058;29;20497;-65
2023/07/06 03:07:58;;;;;;;7.63;4.30;;;;;;;15.17;72.21;100955.22;4923965;29;20438;-64
2023/07/06 03:10:27;;;;;;;10.33;4.57;;;;;;;15.19;72.20;100957.72;4922585;29;20438;-65
2023/07/06 03:12:57;;;;;;;4.90;4.37;;;;;;;15.14;72.48;100961.16;4925942;29;20416;-64
2023/07/06 03:15:28;;;;;;;6.83;4.50;;;;;;;14.99;72.73;100955.28;4915510;29;20521;-64
2023/07/06 03:17:58;;;;;;;5.47;3.90;;;;;;;15.03;72.83;100958.34;4917956;29;20949;-65
2023/07/06 03:20:27;;;;;;;5.10;4.00;;;;;;;15.04;72.85;100951.84;4922664;29;20429;-64
2023/07/06 03:22:58;;;;;;;5.17;4.23;;;;;;;15.18;72.06;100959.63;4916533;29;20415;-64
2023/07/06 03:25:28;;;;;;;11.07;4.53;;;;;;;15.10;72.28;100959.13;4919022;29;20948;-65
2023/07/06 03:27:57;;;;;;;5.47;4.60;;;;;;;15.13;72.62;100964.94;4917346;29;21082;-65
2023/07/06 03:30:29;;;;;;;6.87;4.37;;;;;;;15.23;71.75;100965.22;4921871;29;20447;-65
2023/07/06 03:33:00;;;;;;;13.63;4.40;;;;;;;15.23;72.43;100967.94;4918124;29;20433;-59
2023/07/06 03:35:29;;;;;;;9.47;4.83;;;;;;;15.30;72.24;100967.03;4919106;29;20447;-64
2023/07/06 03:38:00;;;;;;;5.33;4.50;;;;;;;15.36;72.26;100972.38;4922025;29;20736;-65
2023/07/06 03:40:30;;;;;;;5.27;4.10;;;;;;;15.75;70.87;100968.22;4918788;29;20416;-66
2023/07/06 03:43:01;;;;;;;8.93;4.90;;;;;;;16.47;68.37;100982.53;4934008;29;20434;-63
2023/07/06 03:45:31;;;;;;;6.73;4.37;;;;;;;17.38;64.75;100976.25;4916778;29;20433;-66
2023/07/06 03:48:00;;;;;;;7.73;4.57;;;;;;;18.38;60.82;100981.81;4917706;29;20483;-69
2023/07/06 03:50:31;;;;;;;5.10;4.63;;;;;;;19.26;57.52;100983.56;4917322;29;20421;-64
2023/07/06 03:53:03;;;;;;;6.00;4.40;;;;;;;19.98;55.43;100977.69;4924082;29;20506;-65
2023/07/06 03:55:32;;;;;;;5.93;4.40;;;;;;;20.32;53.87;100981.81;4921121;29;20435;-66
2023/07/06 03:58:01;;;;;;;8.57;4.90;;;;;;;20.57;53.38;100980.34;4916888;29;20530;-65
2023/07/06 04:00:35;;;;;;;12.90;5.67;;;;;;;20.92;52.20;100983.25;4922785;29;20467;-63
2023/07/06 04:03:06;;;;;;;7.60;4.20;;;;;;;21.23;51.58;100989.72;4917106;29;20495;-65
2023/07/06 04:05:38;;;;;;;6.23;4.87;;;;;;;21.43;50.85;100984.28;4917104;29;20408;-64
2023/07/06 04:08:12;;;;;;;5.40;4.63;;;;;;;21.37;50.98;100988.13;4918374;29;20522;-64
2023/07/06 04:10:42;;;;;;;10.67;5.63;;;;;;;21.76;50.10;100998.66;4924770;29;20866;-65
2023/07/06 04:13:13;;;;;;;6.40;4.07;;;;;;;22.07;49.28;101001.16;4921285;29;20436;-66
2023/07/06 04:15:45;;;;;;;6.17;4.83;;;;;;;22.21;48.67;100995.13;4925742;29;20469;-64
2023/07/06 04:18:16;;;;;;;9.63;5.20;;;;;;;22.26;48.28;100998.72;4921536;29;20842;-64
2023/07/06 04:20:47;;;;;;;8.57;5.00;;;;;;;22.65;47.22;100998.91;4923661;29;20448;-66
2023/07/06 04:23:18;;;;;;;5.93;4.93;;;;;;;22.69;46.69;101002.75;4928817;29;20436;-66
2023/07/06 04:25:48;;;;;;;4.30;3.90;;;;;;;22.68;47.10;101006.63;4927387;29;20427;-65
2023/07/06 04:28:17;;;;;;;6.93;4.87;;;;;;;22.69;47.36;101013.78;4924631;29;20484;-67
2023/07/06 04:30:50;;;;;;;5.70;5.07;;;;;;;23.03;46.73;101013.16;4925994;29;20853;-64
2023/07/06 04:33:20;;;;;;;8.90;4.10;;;;;;;22.83;46.81;101022.34;4923001;29;20435;-65
2023/07/06 04:35:53;;;;;;;6.50;4.53;;;;;;;23.07;46.61;101019.78;4927338;29;20447;-65
2023/07/06 04:38:26;;;;;;;6.10;5.10;;;;;;;23.22;46.17;101022.47;4924059;29;20424;-65
2023/07/06 04:40:55;;;;;;;6.20;5.60;;;;;;;23.27;45.84;101022.44;4925623;29;20428;-64
2023/07/06 04:43:26;;;;;;;6.23;4.80;;;;;;;23.44;45.79;101030.34;4924878;29;20408;-64
2023/07/06 04:45:56;;;;;;;4.60;4.20;;;;;;;23.50;45.43;101035.63;4923763;29;20520;-63
2023/07/06 04:48:27;;;;;;;7.40;4.23;;;;;;;23.87;44.60;101037.06;4915096;29;20457;-65
2023/07/06 04:50:56;;;;;;;6.03;5.20;;;;;;;23.90;44.71;101039.25;4921786;29;20448;-66
2023/07/06 04:53:28;;;;;;;8.40;5.57;;;;;;;23.62;44.60;101038.03;4918274;29;20433;-65
2023/07/06 04:56:00;;;;;;;6.47;4.57;;;;;;;23.37;45.35;101041.72;4918445;29;20444;-66
2023/07/06 04:58:29;;;;;;;5.30;4.00;;;;;;;23.31;45.24;101049.22;4916537;29;20461;-66
2023/07/06 05:01:06;;;;;;;4.93;3.73;;;;;;;23.30;45.14;101052.25;4919589;29;20416;-64
2023/07/06 05:03:36;;;;;;;6.47;4.97;;;;;;;23.47;45.32;101040.88;4919653;29;20407;-67
2023/07/06 05:06:13;;;;;;;6.50;4.77;;;;;;;23.66;44.88;101048.25;4924544;29;20425;-64
2023/07/06 05:08:44;;;;;;;7.10;4.33;;;;;;;23.60;44.68;101046.59;4920963;29;20457;-65
2023/07/06 05:11:13;;;;;;;11.07;3.87;;;;;;;23.44;44.88;101047.75;4919933;29;20425;-65
2023/07/06 05:13:43;;;;;;;6.40;5.33;;;;;;;23.95;43.83;101047.50;4924923;29;20424;-63
2023/07/06 05:16:13;;;;;;;6.10;3.60;;;;;;;23.60;44.51;101049.38;4925221;29;20544;-65
2023/07/06 05:18:43;;;;;;;6.43;4.10;;;;;;;24.39;43.68;101048.28;4919846;29;20457;-66
2023/07/06 05:21:12;;;;;;;5.60;3.20;;;;;;;24.43;42.48;101054.88;4920531;29;20504;-67
2023/07/06 05:23:43;;;;;;;7.63;4.10;;;;;;;25.35;41.59;101063.84;4925763;29;20908;-65
2023/07/06 05:26:12;;;;;;;5.20;4.30;;;;;;;25.32;41.37;101067.19;4920660;29;20662;-67
2023/07/06 05:28:41;;;;;;;14.83;4.47;;;;;;;24.75;42.95;101062.56;4920439;29;20518;-66
2023/07/06 05:31:11;;;;;;;5.20;3.57;;;;;;;24.12;43.07;101064.50;4918788;29;20495;-64
2023/07/06 05:33:40;;;;;;;5.67;4.23;;;;;;;23.83;44.58;101070.78;4920761;29;20854;-66
2023/07/06 05:36:09;;;;;;;7.70;4.27;;;;;;;23.29;44.84;101084.56;4919216;29;20469;-66
2023/07/06 05:38:38;;;;;;;8.40;4.77;;;;;;;22.96;46.20;101080.53;4926273;29;20462;-64
2023/07/06 05:41:09;;;;;;;6.70;4.63;;;;;;;21.39;49.49;101076.78;4918805;29;20825;-63
2023/07/06 05:43:38;;;;;;;7.80;4.00;;;;;;;20.11;53.43;101069.81;4923307;29;20450;-64
2023/07/06 05:46:07;;;;;;;6.30;4.27;;;;;;;19.49;56.27;101067.53;4921645;29;20426;-65
2023/07/06 05:48:37;;;;;;;4.83;4.00;;;;;;;19.16;57.25;101068.47;4931393;29;20447;-64
2023/07/06 05:51:06;;;;;;;5.10;3.90;;;;;;;18.50;59.13;101064.72;4922549;29;20434;-67
2023/07/06 05:53:35;;;;;;;6.07;4.37;;;;;;;18.55;60.49;101074.97;4925334;29;20418;-67
2023/07/06 05:56:05;;;;;;;6.30;4.07;;;;;;;18.44;60.58;101081.38;4923420;29;20892;-64
2023/07/06 05:58:35;;;;;;;6.93;3.83;;;;;;;18.30;59.51;101080.84;4919983;29;20475;-65
2023/07/06 06:01:05;;;;;;;7.63;3.60;;;;;;;18.05;60.37;101083.16;4922177;29;20427;-65
2023/07/06 06:03:35;;;;;;;7.17;4.40;;;;;;;18.33;60.88;101091.31;4916065;29;20777;-66
2023/07/06 06:06:05;;;;;;;9.07;3.77;;;;;;;18.22;60.21;101090.31;4919532;29;20416;-66
2023/07/06 06:08:35;;;;;;;8.30;4.00;;;;;;;18.20;61.12;101099.88;4914486;29;20994;-66
2023/07/06 06:11:05;;;;;;;4.70;3.63;;;;;;;18.39;60.67;101084.84;4917111;29;20415;-66
2023/07/06 06:13:43;;;;;;;9.07;3.90;;;;;;;18.45;59.33;101088.47;4915409;29;20524;-67
2023/07/06 06:16:12;;;;;;;7.23;3.60;;;;;;;18.53;58.69;101099.03;4918457;29;20520;-65
2023/07/06 06:18:42;;;;;;;9.77;3.63;;;;;;;18.76;58.62;101101.63;4931335;29;20451;-67
2023/07/06 06:21:11;;;;;;;4.03;3.13;;;;;;;18.91;58.23;101093.63;4923303;29;20434;-66
2023/07/06 06:23:42;;;;;;;6.17;3.83;;;;;;;18.72;59.23;101095.00;4922893;29;20764;-63
2023/07/06 06:26:11;;;;;;;5.03;3.57;;;;;;;19.06;58.20;101104.81;4917863;29;20433;-64
2023/07/06 06:28:42;;;;;;;6.83;4.60;;;;;;;18.92;56.90;101108.19;4917586;29;20455;-64
2023/07/06 06:31:12;;;;;;;6.53;3.57;;;;;;;19.03;57.11;101104.47;4924032;29;20548;-63
2023/07/06 06:33:41;;;;;;;5.70;5.10;;;;;;;18.88;56.65;101115.25;4925870;29;20451;-65
2023/07/06 06:36:10;;;;;;;9.53;4.30;;;;;;;18.97;55.94;101111.84;4914108;29;20450;-62
2023/07/06 06:38:39;;;;;;;6.80;2.83;;;;;;;19.02;55.03;101111.91;4914493;29;20952;-65
2023/07/06 06:41:10;;;;;;;3.43;2.80;;;;;;;18.93;54.97;101110.66;4914087;29;20472;-65
2023/07/06 06:43:39;;;;;;;5.73;3.07;;;;;;;19.14;55.39;101121.91;4914016;29;20437;-62
2023/07/06 06:46:12;;;;;;;7.47;3.40;;;;;;;19.06;55.30;101124.03;4917792;29;20446;-65
2023/07/06 06:48:43;;;;;;;5.33;3.40;;;;;;;19.04;55.66;101117.13;4915451;29;20439;-60
2023/07/06 06:51:12;;;;;;;8.07;3.90;;;;;;;19.15;54.50;101120.84;4915700;29;20858;-65
2023/07/06 06:53:42;;;;;;;5.30;4.43;;;;;;;19.14;54.97;101133.72;4915871;29;20437;-64
2023/07/06 06:56:11;;;;;;;6.23;3.30;;;;;;;19.39;53.99;101125.84;4917379;29;20470;-64
2023/07/06 06:58:41;;;;;;;4.63;2.90;;;;;;;19.31;54.05;101133.69;4916287;29;20480;-64
2023/07/06 07:01:16;;;;;;;6.80;4.50;;;;;;;19.51;53.64;101126.56;4916625;29;20432;-64
2023/07/06 07:03:46;;;;;;;4.70;2.70;;;;;;;19.29;53.13;101128.44;4915307;29;20436;-67
2023/07/06 07:06:17;;;;;;;8.60;3.20;;;;;;;19.29;52.35;101122.97;4914571;29;20422;-64
2023/07/06 07:08:49;;;;;;;5.70;3.00;;;;;;;19.52;52.44;101127.38;4918610;29;20449;-65
2023/07/06 07:11:31;;;;;;;7.30;3.83;;;;;;;19.61;51.55;101125.03;4916474;29;20461;-64
2023/07/06 07:14:00;;;;;;;4.93;4.43;;;;;;;19.79;51.38;101135.69;4923705;29;20400;-65
2023/07/06 07:16:30;;;;;;;6.57;2.13;;;;;;;20.10;50.04;101128.59;4921721;29;20457;-64
2023/07/06 07:18:59;;;;;;;6.00;3.00;;;;;;;19.98;49.45;101133.41;4921937;29;20516;-64
2023/07/06 07:21:28;;;;;;;5.80;3.13;;;;;;;20.05;50.05;101134.88;4923658;29;20450;-64
2023/07/06 07:23:57;;;;;;;2.63;2.20;;;;;;;20.15;50.12;101137.72;4923211;29;20459;-64
2023/07/06 07:26:26;;;;;;;3.13;2.83;;;;;;;20.54;49.64;101138.38;4921461;29;20491;-66
2023/07/06 07:28:56;;;;;;;6.23;2.90;;;;;;;20.04;49.56;101144.22;4927907;29;20434;-65
2023/07/06 07:31:26;;;;;;;4.03;2.60;;;;;;;19.83;48.68;101134.91;4933898;29;20401;-65
2023/07/06 07:33:57;;;;;;;3.13;2.83;;;;;;;19.92;49.57;101149.84;4925190;29;20434;-64
2023/07/06 07:36:27;;;;;;;5.03;2.23;;;;;;;20.26;48.11;101144.97;4919371;29;20404;-67
2023/07/06 07:38:56;;;;;;;3.30;1.80;;;;;;;20.11;49.02;101139.31;4921700;29;20967;-64
2023/07/06 07:41:26;;;;;;;4.13;2.90;;;;;;;20.30;48.96;101150.78;4923508;29;20451;-66
2023/07/06 07:43:55;;;;;;;6.30;2.40;;;;;;;20.65;48.66;101147.56;4921724;29;20408;-63
2023/07/06 07:46:25;;;;;;;3.80;2.00;;;;;;;21.05;47.00;101150.59;4919597;29;20416;-67
2023/07/06 07:48:56;;;;;;;2.83;2.00;;;;;;;20.99;45.89;101148.06;4919702;29;20437;-65
2023/07/06 07:51:27;;;;;;;4.33;2.30;;;;;;;21.03;46.66;101155.53;4921674;29;20790;-67
2023/07/06 07:53:57;;;;;;;2.80;1.93;;;;;;;20.80;45.88;101167.75;4915013;29;20404;-65
2023/07/06 07:56:27;;;;;;;5.53;3.13;;;;;;;20.77;46.91;101156.44;4916209;29;20437;-63
2023/07/06 07:58:56;;;;;;;3.50;2.80;;;;;;;21.04;45.34;101162.69;4913011;29;20484;-66
2023/07/06 08:01:26;;;;;;;5.30;2.30;;;;;;;21.16;44.60;101165.25;4916599;29;20493;-64
2023/07/06 08:03:57;;;;;;;3.57;2.30;;;;;;;21.07;44.58;101159.41;4914228;29;20809;-65
2023/07/06 08:06:26;;;;;;;3.83;2.83;;;;;;;21.38;44.32;101160.47;4915789;29;20440;-66
2023/07/06 08:08:55;;;;;;;2.83;2.50;;;;;;;21.24;43.83;101162.03;4914616;29;20414;-65
2023/07/06 08:11:25;;;;;;;5.00;2.40;;;;;;;21.20;44.52;101161.72;4910595;29;20547;-66
2023/07/06 08:13:56;;;;;;;5.97;3.20;;;;;;;21.21;45.42;101160.63;4918353;29;20437;-67
2023/07/06 08:16:26;;;;;;;3.80;2.63;;;;;;;21.25;44.85;101167.25;4915401;29;20445;-61
2023/07/06 08:18:56;;;;;;;4.90;2.90;;;;;;;21.26;45.02;101154.31;4915598;29;20548;-62
2023/07/06 08:21:45;;;;;;;9.33;2.27;;;;;;;21.30;44.79;101162.91;4916389;29;20432;-65
2023/07/06 08:24:36;;;;;;;3.03;1.87;;;;;;;21.40;45.32;101171.19;4912775;29;20445;-64
2023/07/06 08:27:06;;;;;;;2.60;2.40;;;;;;;21.09;44.98;101170.16;4916098;29;20485;-63
2023/07/06 08:29:35;;;;;;;4.20;2.37;;;;;;;21.04;45.41;101165.47;4914636;29;20905;-63
2023/07/06 08:32:04;;;;;;;4.57;2.90;;;;;;;21.59;45.72;101166.91;4913488;29;20965;-65
2023/07/06 08:34:35;;;;;;;3.87;2.73;;;;;;;21.95;45.33;101174.22;4912174;29;20408;-66
2023/07/06 08:37:04;;;;;;;4.10;2.70;;;;;;;22.40;42.99;101175.44;4912713;29;20896;-65
2023/07/06 08:39:33;;;;;;;3.17;2.30;;;;;;;22.07;43.28;101177.56;4914961;29;20450;-65
2023/07/06 08:42:03;;;;;;;5.97;2.17;;;;;;;21.89;43.25;101180.78;4910369;29;20473;-64
2023/07/06 08:44:32;;;;;;;3.67;2.60;;;;;;;21.57;44.85;101185.59;4912283;29;20755;-66
2023/07/06 08:47:01;;;;;;;6.13;2.30;;;;;;;21.75;44.01;101179.63;4911049;29;20886;-67
2023/07/06 08:49:32;;;;;;;2.90;2.60;;;;;;;22.27;43.26;101176.78;4911253;29;20425;-64
2023/07/06 08:52:05;;;;;;;4.00;2.63;;;;;;;22.84;42.05;101187.63;4911506;29;20418;-64
2023/07/06 08:54:38;;;;;;;2.40;1.80;;;;;;;22.48;42.48;101177.63;4913561;29;20420;-63
2023/07/06 08:57:15;;;;;;;4.00;3.00;;;;;;;22.36;42.79;101185.34;4914505;29;20461;-65
2023/07/06 08:59:48;;;;;;;3.17;2.53;;;;;;;22.54;42.14;101187.56;4911693;29;20464;-63
2023/07/06 09:02:19;;;;;;;2.50;2.30;;;;;;;22.38;42.33;101188.66;4918497;29;20464;-65
2023/07/06 09:04:50;;;;;;;9.43;3.30;;;;;;;22.28;41.83;101188.63;4913058;29;20433;-64
2023/07/06 09:07:26;;;;;;;3.30;2.73;;;;;;;22.72;42.35;101189.81;4914471;29;20743;-66
2023/07/06 09:09:57;;;;;;;3.17;2.27;;;;;;;23.04;42.74;101194.22;4914025;29;20485;-65
2023/07/06 09:12:41;;;;;;;3.70;2.33;;;;;;;23.32;41.73;101199.97;4916927;29;20957;-64
2023/07/06 09:15:35;;;;;;;2.90;2.57;;;;;;;23.73;40.40;101192.41;4914699;29;20396;-66
2023/07/06 09:18:06;;;;;;;3.83;3.03;;;;;;;24.16;40.70;101196.38;4913892;29;20469;-66
2023/07/06 09:20:36;;;;;;;6.80;2.87;;;;;;;24.61;40.35;101200.78;4912751;29;20847;-65
2023/07/06 09:23:06;;;;;;;4.20;3.13;;;;;;;24.73;39.26;101196.84;4915218;29;20904;-64
2023/07/06 09:25:43;;;;;;;3.80;2.47;;;;;;;23.93;39.78;101193.44;4916206;29;20407;-64
2023/07/06 09:28:18;;;;;;;8.00;2.67;;;;;;;22.98;42.03;101198.09;4912098;29;20457;-66
2023/07/06 09:30:49;;;;;;;9.40;4.10;;;;;;;22.62;42.29;101188.94;4914568;29;20520;-62
2023/07/06 09:33:24;;;;;;;4.53;2.57;;;;;;;22.64;42.56;101184.81;4913488;29;20847;-65
2023/07/06 09:35:55;;;;;;;3.73;2.90;;;;;;;22.92;43.48;101194.50;4913673;29;20407;-64
2023/07/06 09:38:30;;;;;;;3.63;2.73;;;;;;;22.33;42.99;101194.16;4912678;29;20476;-63
2023/07/06 09:41:01;;;;;;;3.37;2.53;;;;;;;22.50;43.48;101192.00;4913065;29;20482;-66
2023/07/06 09:43:39;;;;;;;4.40;2.90;;;;;;;22.59;42.85;101184.81;4914596;29;20501;-65
2023/07/06 09:46:10;;;;;;;6.10;2.60;;;;;;;22.01;43.87;101194.34;4910868;29;20473;-62
2023/07/06 09:48:41;;;;;;;5.13;2.60;;;;;;;22.34;43.93;101193.06;4915136;29;20811;-64
2023/07/06 09:51:18;;;;;;;3.30;2.40;;;;;;;21.86;44.11;101186.00;4931168;29;20829;-64
2023/07/06 09:53:53;;;;;;;5.60;2.70;;;;;;;21.23;45.43;101185.97;4915376;29;21086;-65
2023/07/06 09:56:23;;;;;;;3.50;3.17;;;;;;;21.37;46.24;101188.25;4916693;29;20415;-62
2023/07/06 09:58:53;;;;;;;4.43;3.00;;;;;;;21.77;45.83;101190.38;4917138;29;20457;-64
2023/07/06 10:01:35;;;;;;;5.17;3.07;;;;;;;22.09;44.04;101185.56;4917988;29;20505;-63
2023/07/06 10:04:32;;;;;;;3.90;3.10;;;;;;;21.71;44.86;101186.78;4918375;29;20451;-64
2023/07/06 10:07:12;;;;;;;3.80;3.23;;;;;;;22.36;43.69;101185.34;4915952;29;20465;-66
2023/07/06 10:09:50;;;;;;;10.03;3.00;;;;;;;22.35;43.17;101187.28;4917889;29;20514;-65
2023/07/06 10:12:28;;;;;;;6.83;3.27;;;;;;;22.52;42.54;101185.09;4918034;29;20958;-64
2023/07/06 10:15:28;;;;;;;2.80;2.47;;;;;;;22.37;42.86;101187.81;4918233;29;20436;-64
2023/07/06 10:18:03;;;;;;;3.53;2.67;;;;;;;22.22;43.43;101196.06;4919705;29;21023;-65
2023/07/06 10:20:43;;;;;;;6.97;3.33;;;;;;;22.05;44.05;101190.78;4917409;29;20465;-66
2023/07/06 10:23:26;;;;;;;5.10;2.87;;;;;;;22.43;43.93;101191.41;4916901;29;20946;-63
2023/07/06 10:26:08;;;;;;;11.40;3.60;;;;;;;22.38;43.93;101194.16;4922900;29;20535;-64
2023/07/06 10:28:41;;;;;;;4.90;3.30;;;;;;;22.04;44.57;101189.13;4916126;29;20427;-65
2023/07/06 10:31:16;;;;;;;6.90;3.07;;;;;;;22.59;43.25;101186.75;4918926;29;20419;-66
2023/07/06 10:33:55;;;;;;;3.50;2.90;;;;;;;22.86;43.02;101188.16;4916570;29;20776;-64
2023/07/06 10:36:35;;;;;;;3.07;2.70;;;;;;;23.17;43.18;101196.41;4916056;29;20429;-62
2023/07/06 10:39:34;;;;;;;5.93;3.47;;;;;;;23.52;42.05;101188.09;4914695;29;20444;-68
2023/07/06 10:42:10;;;;;;;4.27;2.60;;;;;;;23.69;41.46;101191.31;4915582;29;20449;-65
2023/07/06 10:44:50;;;;;;;3.97;2.17;;;;;;;23.51;42.70;101196.66;4915042;29;20480;-69
2023/07/06 10:47:38;;;;;;;4.80;3.13;;;;;;;24.18;40.03;101196.09;4915510;29;20487;-65
2023/07/06 10:50:23;;;;;;;6.57;2.93;;;;;;;24.27;40.56;101199.09;4916084;29;20793;-65
2023/07/06 10:53:03;;;;;;;3.77;2.50;;;;;;;24.88;38.53;101188.44;4915664;29;20443;-65
2023/07/06 10:55:35;;;;;;;4.63;2.83;;;;;;;25.52;37.01;101199.94;4915739;29;20446;-67
2023/07/06 10:58:27;;;;;;;3.13;2.00;;;;;;;25.86;36.06;101199.84;4915218;29;20557;-64
2023/07/06 11:00:58;;;;;;;5.03;2.80;;;;;;;25.42;36.70;101193.69;4914514;29;20479;-65
2023/07/06 11:03:31;;;;;;;2.67;2.10;;;;;;;24.96;37.72;101190.56;4914084;29;20977;-66
2023/07/06 11:06:06;;;;;;;3.40;2.40;;;;;;;24.73;38.13;101197.66;4915984;29;20508;-63
2023/07/06 11:09:11;;;;;;;4.33;2.50;;;;;;;24.71;38.17;101193.53;4912878;29;20936;-65
2023/07/06 11:11:42;;;;;;;4.10;2.53;;;;;;;24.52;37.64;101207.22;4912060;29;20427;-62
2023/07/06 11:14:24;;;;;;;3.07;2.73;;;;;;;24.57;38.54;101210.78;4913588;29;20850;-65
2023/07/06 11:16:57;;;;;;;3.53;2.67;;;;;;;24.68;38.94;101206.00;4913881;29;20440;-65
2023/07/06 11:19:32;;;;;;;4.87;2.83;;;;;;;24.55;38.72;101209.41;4914542;29;20473;-62
2023/07/06 11:22:06;;;;;;;2.90;2.60;;;;;;;24.76;38.45;101207.31;4914084;29;20468;-66
2023/07/06 11:24:42;;;;;;;2.50;2.30;;;;;;;24.72;38.47;101214.56;4915933;29;20992;-67
2023/07/06 11:27:24;;;;;;;2.80;2.20;;;;;;;24.27;39.09;101216.50;4914296;29;20826;-65
2023/07/06 11:30:04;;;;;;;2.77;2.43;;;;;;;24.07;39.43;101214.66;4913926;29;20504;-65
2023/07/06 11:32:40;;;;;;;5.10;2.40;;;;;;;24.30;39.09;101221.50;4914175;29;20493;-65
2023/07/06 11:35:24;;;;;;;3.30;2.00;;;;;;;24.82;38.58;101222.78;4915215;29;20429;-66
2023/07/06 11:38:17;;;;;;;6.03;2.70;;;;;;;24.70;38.17;101228.66;4914279;29;20493;-67
2023/07/06 11:41:11;;;;;;;6.60;3.20;;;;;;;24.28;38.69;101228.41;4915438;29;20480;-69
2023/07/06 11:44:01;;;;;;;14.40;3.37;;;;;;;24.53;38.21;101229.06;4914768;29;20465;-65
2023/07/06 11:46:42;;;;;;;3.73;2.43;;;;;;;23.92;38.91;101230.47;4913395;29;21149;-65
2023/07/06 11:49:41;;;;;;;3.43;3.13;;;;;;;23.81;39.46;101230.53;4922906;29;20456;-65
2023/07/06 11:52:44;;;;;;;3.33;2.50;;;;;;;23.75;40.15;101239.13;4914719;29;20781;-67
2023/07/06 11:55:29;;;;;;;3.63;2.70;;;;;;;23.72;39.98;101234.97;4914130;29;20436;-62
2023/07/06 11:58:07;;;;;;;4.67;2.97;;;;;;;23.86;40.29;101231.63;4917776;29;20435;-65